createdAt,value
2019-06-01T00:01:05.157Z,14.57
2019-06-01T00:04:13.230Z,14.58
2019-06-01T00:07:19.765Z,14.74
2019-06-01T00:10:26.271Z,14.73
2019-06-01T00:13:36.117Z,14.72
2019-06-01T00:16:43.719Z,14.48
2019-06-01T00:19:50.734Z,14.54
2019-06-01T00:22:59.383Z,14.55
2019-06-01T00:26:05.878Z,14.63
2019-06-01T00:29:12.348Z,14.58
2019-06-01T00:32:19.008Z,14.36
2019-06-01T00:35:25.496Z,14.43
2019-06-01T00:38:32.113Z,14.45
2019-06-01T00:41:38.587Z,14.49
2019-06-01T00:44:46.247Z,14.30
2019-06-01T00:47:53.036Z,13.97
2019-06-01T00:51:00.516Z,13.86
2019-06-01T00:54:07.029Z,14.01
2019-06-01T00:57:13.562Z,14.01
2019-06-01T01:00:20.257Z,14.16
2019-06-01T01:03:26.779Z,14.06
2019-06-01T01:06:36.070Z,13.97
2019-06-01T01:09:44.831Z,14.04
2019-06-01T01:13:05.710Z,13.69
2019-06-01T01:16:13.216Z,14.06
2019-06-01T01:19:19.747Z,13.84
2019-06-01T01:22:27.768Z,13.85
2019-06-01T01:25:34.452Z,13.57
2019-06-01T01:28:40.946Z,13.74
2019-06-01T01:31:47.452Z,13.55
2019-06-01T01:34:53.971Z,13.41
2019-06-01T01:38:00.665Z,13.42
2019-06-01T01:41:07.124Z,13.59
2019-06-01T01:44:13.792Z,13.44
2019-06-01T01:47:20.248Z,13.58
2019-06-01T01:50:27.716Z,13.48
2019-06-01T01:53:34.576Z,13.31
2019-06-01T01:56:41.036Z,13.30
2019-06-01T01:59:47.546Z,13.46
2019-06-01T02:02:54.136Z,13.46
2019-06-01T02:06:00.741Z,13.06
2019-06-01T02:09:09.467Z,13.08
2019-06-01T02:12:15.935Z,13.39
2019-06-01T02:15:22.443Z,13.28
2019-06-01T02:18:29.064Z,13.06
2019-06-01T02:21:35.520Z,13.24
2019-06-01T02:24:42.027Z,13.16
2019-06-01T02:27:48.595Z,13.13
2019-06-01T02:30:56.112Z,13.28
2019-06-01T02:34:05.767Z,13.17
2019-06-01T02:37:11.389Z,13.25
2019-06-01T02:40:19.539Z,13.30
2019-06-01T02:43:27.741Z,12.94
2019-06-01T02:46:37.232Z,13.05
2019-06-01T02:49:43.737Z,12.97
2019-06-01T02:52:50.584Z,12.93
2019-06-01T02:55:57.869Z,13.14
2019-06-01T02:59:04.524Z,13.08
2019-06-01T03:02:14.523Z,13.23
2019-06-01T03:05:20.509Z,13.03
2019-06-01T03:08:27.224Z,13.27
2019-06-01T03:11:36.897Z,13.32
2019-06-01T03:14:45.172Z,13.09
2019-06-01T03:17:54.943Z,13.11
2019-06-01T03:21:05.052Z,13.26
2019-06-01T03:24:13.615Z,13.30
2019-06-01T03:27:22.802Z,13.17
2019-06-01T03:30:45.405Z,13.06
2019-06-01T03:33:52.449Z,13.08
2019-06-01T03:37:00.854Z,12.97
2019-06-01T03:40:15.728Z,12.83
2019-06-01T03:43:17.643Z,12.93
2019-06-01T03:46:24.067Z,12.88
2019-06-01T03:49:32.125Z,12.80
2019-06-01T03:52:38.543Z,12.91
2019-06-01T03:55:45.107Z,12.89
2019-06-01T03:58:51.822Z,12.81
2019-06-01T04:01:58.328Z,12.88
2019-06-01T04:05:05.623Z,13.00
2019-06-01T04:08:12.150Z,13.16
2019-06-01T04:11:18.702Z,13.09
2019-06-01T04:14:25.242Z,13.06
2019-06-01T04:17:32.913Z,13.09
2019-06-01T04:20:39.578Z,13.23
2019-06-01T04:23:46.140Z,13.24
2019-06-01T04:26:52.624Z,13.24
2019-06-01T04:29:59.112Z,13.33
2019-06-01T04:33:06.904Z,13.69
2019-06-01T04:36:14.882Z,13.75
2019-06-01T04:39:21.375Z,13.87
2019-06-01T04:42:27.830Z,14.02
2019-06-01T04:45:35.951Z,13.95
2019-06-01T04:48:42.408Z,14.05
2019-06-01T04:51:48.980Z,14.37
2019-06-01T04:54:55.468Z,14.35
2019-06-01T04:58:01.912Z,14.62
2019-06-01T05:01:08.964Z,14.74
2019-06-01T05:04:15.600Z,14.92
2019-06-01T05:07:23.053Z,14.98
2019-06-01T05:10:29.655Z,15.02
2019-06-01T05:13:37.896Z,15.24
2019-06-01T05:16:44.376Z,15.34
2019-06-01T05:19:50.938Z,15.55
2019-06-01T05:22:57.476Z,15.72
2019-06-01T05:26:04.320Z,15.77
2019-06-01T05:29:11.667Z,16.11
2019-06-01T05:32:18.849Z,16.15
2019-06-01T05:35:25.429Z,16.23
2019-06-01T05:38:34.312Z,16.44
2019-06-01T05:41:40.815Z,16.53
2019-06-01T05:44:47.273Z,16.69
2019-06-01T05:47:53.762Z,16.76
2019-06-01T05:51:00.314Z,16.99
2019-06-01T05:54:06.993Z,17.24
2019-06-01T05:57:14.657Z,17.34
2019-06-01T06:00:25.446Z,17.39
2019-06-01T06:03:40.342Z,17.49
2019-06-01T06:06:43.178Z,17.57
2019-06-01T06:09:49.525Z,17.78
2019-06-01T06:12:57.244Z,17.98
2019-06-01T06:16:03.496Z,18.04
2019-06-01T06:19:09.955Z,18.16
2019-06-01T06:22:16.460Z,18.26
2019-06-01T06:25:28.093Z,18.24
2019-06-01T06:28:36.151Z,18.62
2019-06-01T06:31:42.623Z,18.74
2019-06-01T06:34:49.607Z,18.70
2019-06-01T06:37:56.085Z,19.10
2019-06-01T06:41:02.551Z,18.83
2019-06-01T06:44:09.154Z,18.76
2019-06-01T06:47:16.701Z,18.97
2019-06-01T06:50:23.623Z,19.72
2019-06-01T06:53:35.462Z,19.49
2019-06-01T06:56:41.787Z,19.21
2019-06-01T06:59:48.275Z,19.25
2019-06-01T07:02:56.131Z,19.50
2019-06-01T07:06:03.458Z,19.64
2019-06-01T07:09:10.347Z,19.89
2019-06-01T07:12:19.276Z,19.98
2019-06-01T07:15:25.877Z,20.00
2019-06-01T07:18:37.091Z,20.15
2019-06-01T07:21:44.687Z,20.24
2019-06-01T07:24:55.119Z,20.26
2019-06-01T07:28:01.825Z,20.65
2019-06-01T07:31:08.374Z,20.40
2019-06-01T07:34:29.421Z,20.66
2019-06-01T07:37:24.360Z,20.72
2019-06-01T07:40:33.506Z,20.91
2019-06-01T07:43:40.005Z,20.79
2019-06-01T07:46:47.554Z,20.78
2019-06-01T07:49:54.106Z,20.91
2019-06-01T07:53:00.565Z,21.02
2019-06-01T07:56:07.118Z,20.95
2019-06-01T07:59:13.790Z,21.05
2019-06-01T08:02:25.400Z,21.27
2019-06-01T08:05:30.058Z,21.37
2019-06-01T08:08:39.759Z,21.11
2019-06-01T08:11:46.372Z,21.48
2019-06-01T08:14:52.932Z,21.53
2019-06-01T08:17:59.376Z,21.32
2019-06-01T08:21:06.226Z,21.43
2019-06-01T08:24:14.538Z,22.06
2019-06-01T08:27:22.357Z,21.88
2019-06-01T08:30:29.183Z,22.61
2019-06-01T08:33:35.818Z,22.81
2019-06-01T08:36:42.467Z,22.80
2019-06-01T08:39:48.996Z,23.26
2019-06-01T08:42:55.731Z,22.35
2019-06-01T08:46:17.892Z,22.67
2019-06-01T08:49:26.201Z,22.80
2019-06-01T08:52:36.847Z,22.62
2019-06-01T08:55:43.124Z,22.20
2019-06-01T08:58:49.633Z,22.20
2019-06-01T09:01:56.214Z,22.94
2019-06-01T09:05:03.223Z,22.60
2019-06-01T09:08:09.664Z,23.47
2019-06-01T09:11:20.236Z,22.42
2019-06-01T09:14:27.239Z,22.91
2019-06-01T09:17:35.319Z,23.09
2019-06-01T09:20:41.784Z,22.97
2019-06-01T09:23:48.018Z,23.08
2019-06-01T09:26:54.257Z,23.49
2019-06-01T09:30:00.691Z,23.37
2019-06-01T09:33:08.799Z,23.63
2019-06-01T09:36:15.041Z,23.62
2019-06-01T09:39:23.524Z,22.95
2019-06-01T09:42:35.141Z,23.22
2019-06-01T09:45:42.417Z,23.39
2019-06-01T09:48:48.812Z,23.13
2019-06-01T09:51:57.435Z,23.82
2019-06-01T09:55:05.054Z,23.86
2019-06-01T09:58:11.578Z,23.41
2019-06-01T10:01:18.227Z,23.67
2019-06-01T10:04:24.799Z,23.32
2019-06-01T10:07:31.116Z,23.31
2019-06-01T10:10:38.058Z,23.63
2019-06-01T10:13:44.649Z,23.93
2019-06-01T10:16:51.037Z,23.69
2019-06-01T10:20:00.438Z,23.68
2019-06-01T10:23:06.658Z,23.99
2019-06-01T10:26:18.877Z,23.58
2019-06-01T10:29:25.144Z,23.31
2019-06-01T10:32:34.225Z,23.71
2019-06-01T10:35:41.082Z,23.66
2019-06-01T10:38:48.501Z,24.36
2019-06-01T10:41:57.802Z,23.69
2019-06-01T10:45:05.897Z,23.60
2019-06-01T10:51:19.550Z,23.98
2019-06-01T10:54:26.152Z,24.24
2019-06-01T10:57:34.494Z,24.37
2019-06-01T11:00:46.690Z,24.23
2019-06-01T11:03:48.959Z,24.59
2019-06-01T11:06:55.294Z,24.68
2019-06-01T11:10:01.601Z,24.80
2019-06-01T11:13:10.329Z,24.97
2019-06-01T11:16:16.884Z,24.40
2019-06-01T11:19:23.151Z,25.11
2019-06-01T11:22:29.468Z,24.94
2019-06-01T11:25:35.726Z,24.73
2019-06-01T11:28:42.282Z,24.62
2019-06-01T11:31:48.576Z,24.79
2019-06-01T11:34:55.052Z,25.31
2019-06-01T11:38:01.245Z,24.19
2019-06-01T11:41:07.595Z,24.46
2019-06-01T11:44:15.291Z,25.03
2019-06-01T11:47:21.721Z,24.48
2019-06-01T11:50:27.513Z,25.16
2019-06-01T11:53:35.049Z,24.92
2019-06-01T11:56:41.549Z,24.62
2019-06-01T11:59:48.334Z,24.99
2019-06-01T12:02:54.911Z,25.07
2019-06-01T12:06:01.299Z,25.36
2019-06-01T12:09:09.561Z,24.85
2019-06-01T12:12:16.192Z,25.06
2019-06-01T12:15:22.256Z,24.70
2019-06-01T12:18:28.857Z,25.25
2019-06-01T12:21:35.062Z,24.63
2019-06-01T12:24:41.270Z,24.83
2019-06-01T12:27:48.347Z,24.98
2019-06-01T12:30:55.058Z,25.30
2019-06-01T12:34:01.243Z,25.36
2019-06-01T12:37:07.698Z,25.06
2019-06-01T12:40:15.580Z,25.19
2019-06-01T12:43:22.847Z,25.01
2019-06-01T12:46:29.077Z,25.72
2019-06-01T12:49:35.232Z,25.06
2019-06-01T12:52:42.246Z,25.41
2019-06-01T12:55:48.912Z,25.47
2019-06-01T12:58:58.964Z,25.46
2019-06-01T13:02:05.373Z,25.86
2019-06-01T13:05:14.669Z,25.52
2019-06-01T13:08:20.956Z,25.20
2019-06-01T13:11:27.196Z,25.78
2019-06-01T13:14:33.439Z,25.85
2019-06-01T13:17:40.961Z,25.82
2019-06-01T13:20:47.800Z,26.16
2019-06-01T13:23:55.196Z,25.44
2019-06-01T13:27:03.894Z,25.25
2019-06-01T13:30:10.906Z,25.67
2019-06-01T13:33:17.241Z,25.49
2019-06-01T13:36:23.496Z,25.22
2019-06-01T13:39:29.959Z,25.78
2019-06-01T13:42:36.242Z,25.42
2019-06-01T13:45:43.264Z,25.74
2019-06-01T13:48:49.950Z,25.60
2019-06-01T13:51:58.489Z,25.66
2019-06-01T13:55:05.162Z,25.91
2019-06-01T13:58:11.358Z,25.51
2019-06-01T14:01:17.553Z,25.64
2019-06-01T14:04:23.900Z,25.86
2019-06-01T14:07:30.076Z,26.17
2019-06-01T14:10:36.425Z,26.07
2019-06-01T14:13:42.621Z,25.95
2019-06-01T14:16:49.516Z,26.24
2019-06-01T14:19:55.998Z,26.05
2019-06-01T14:23:02.339Z,25.89
2019-06-01T14:26:08.476Z,25.78
2019-06-01T14:29:14.851Z,26.01
2019-06-01T14:32:20.991Z,25.94
2019-06-01T14:35:27.317Z,26.27
2019-06-01T14:38:46.614Z,26.12
2019-06-01T14:41:41.540Z,27.15
2019-06-01T14:44:49.231Z,27.45
2019-06-01T14:47:58.129Z,27.98
2019-06-01T14:51:05.407Z,27.80
2019-06-01T14:54:12.881Z,27.54
2019-06-01T14:57:19.142Z,26.99
2019-06-01T15:00:25.509Z,27.36
2019-06-01T15:03:31.821Z,27.63
2019-06-01T15:06:38.093Z,26.83
2019-06-01T15:09:44.311Z,26.59
2019-06-01T15:12:55.453Z,26.83
2019-06-01T15:15:58.542Z,26.00
2019-06-01T15:19:04.919Z,26.65
2019-06-01T15:22:11.162Z,27.28
2019-06-01T15:25:18.087Z,26.67
2019-06-01T15:28:24.328Z,26.78
2019-06-01T15:31:30.513Z,27.39
2019-06-01T15:34:36.925Z,27.02
2019-06-01T15:37:43.368Z,26.56
2019-06-01T15:40:49.605Z,26.67
2019-06-01T15:43:57.020Z,26.36
2019-06-01T15:47:03.259Z,26.71
2019-06-01T15:50:13.186Z,26.90
2019-06-01T15:53:19.743Z,26.84
2019-06-01T15:56:27.353Z,26.29
2019-06-01T15:59:33.605Z,26.38
2019-06-01T16:02:39.906Z,26.31
2019-06-01T16:05:46.283Z,26.54
2019-06-01T16:08:53.232Z,26.55
2019-06-01T16:12:02.003Z,26.45
2019-06-01T16:15:09.365Z,26.44
2019-06-01T16:18:15.819Z,26.08
2019-06-01T16:21:23.428Z,25.64
2019-06-01T16:24:29.747Z,26.01
2019-06-01T16:27:37.384Z,26.11
2019-06-01T16:30:43.816Z,26.09
2019-06-01T16:33:50.092Z,25.72
2019-06-01T16:37:00.875Z,25.87
2019-06-01T16:40:10.611Z,25.44
2019-06-01T16:43:17.590Z,25.71
2019-06-01T16:46:25.603Z,25.80
2019-06-01T16:49:31.891Z,25.31
2019-06-01T16:52:38.239Z,25.48
2019-06-01T16:55:44.548Z,25.74
2019-06-01T16:58:50.822Z,25.63
2019-06-01T17:02:01.001Z,25.45
2019-06-01T17:05:08.541Z,25.22
2019-06-01T17:08:15.020Z,25.15
2019-06-01T17:11:21.324Z,25.53
2019-06-01T17:14:27.603Z,25.57
2019-06-01T17:17:34.444Z,25.32
2019-06-01T17:20:48.676Z,25.46
2019-06-01T17:23:55.119Z,25.41
2019-06-01T17:27:02.155Z,25.32
2019-06-01T17:30:12.089Z,25.27
2019-06-01T17:33:18.063Z,25.34
2019-06-01T17:36:25.469Z,25.24
2019-06-01T17:39:34.586Z,24.81
2019-06-01T17:42:40.913Z,24.92
2019-06-01T17:45:47.297Z,24.64
2019-06-01T17:48:53.813Z,24.31
2019-06-01T17:52:01.677Z,24.13
2019-06-01T17:55:09.133Z,23.97
2019-06-01T17:58:15.440Z,23.82
2019-06-01T18:01:22.684Z,23.92
2019-06-01T18:04:28.997Z,23.35
2019-06-01T18:07:35.205Z,23.50
2019-06-01T18:10:53.333Z,23.13
2019-06-01T18:13:49.665Z,23.48
2019-06-01T18:16:57.492Z,23.55
2019-06-01T18:20:04.605Z,22.99
2019-06-01T18:23:11.452Z,23.35
2019-06-01T18:26:18.630Z,23.11
2019-06-01T18:29:24.863Z,23.04
2019-06-01T18:32:31.597Z,22.64
2019-06-01T18:35:39.506Z,22.85
2019-06-01T18:38:45.818Z,22.77
2019-06-01T18:41:52.145Z,22.73
2019-06-01T18:44:58.670Z,22.48
2019-06-01T18:48:06.186Z,22.24
2019-06-01T18:51:12.559Z,22.02
2019-06-01T18:54:19.758Z,21.66
2019-06-01T18:57:26.156Z,20.87
2019-06-01T19:00:32.524Z,21.10
2019-06-01T19:03:38.803Z,21.13
2019-06-01T19:06:45.393Z,20.52
2019-06-01T19:09:51.789Z,20.95
2019-06-01T19:12:59.351Z,20.55
2019-06-01T19:16:06.004Z,20.73
2019-06-01T19:19:12.573Z,20.57
2019-06-01T19:22:19.298Z,20.31
2019-06-01T19:25:26.205Z,20.00
2019-06-01T19:28:32.761Z,19.62
2019-06-01T19:31:39.466Z,19.69
2019-06-01T19:34:46.362Z,19.99
2019-06-01T19:37:52.941Z,19.61
2019-06-01T19:40:59.751Z,19.05
2019-06-01T19:44:07.406Z,19.10
2019-06-01T19:47:13.971Z,19.11
2019-06-01T19:50:20.609Z,18.68
2019-06-01T19:53:28.455Z,18.40
2019-06-01T19:56:34.867Z,18.66
2019-06-01T19:59:41.337Z,18.83
2019-06-01T20:02:47.807Z,18.81
2019-06-01T20:05:54.908Z,18.24
2019-06-01T20:09:01.401Z,18.32
2019-06-01T20:12:14.513Z,18.55
2019-06-01T20:15:19.524Z,18.47
2019-06-01T20:18:26.260Z,18.61
2019-06-01T20:21:32.719Z,18.50
2019-06-01T20:24:41.603Z,18.10
2019-06-01T20:27:49.124Z,18.09
2019-06-01T20:30:58.676Z,17.94
2019-06-01T20:34:05.636Z,17.97
2019-06-01T20:37:12.323Z,17.88
2019-06-01T20:40:18.844Z,17.87
2019-06-01T20:43:25.413Z,18.14
2019-06-01T20:46:32.316Z,17.52
2019-06-01T20:49:38.778Z,16.93
2019-06-01T20:52:45.389Z,17.41
2019-06-01T20:55:51.896Z,16.85
2019-06-01T20:58:58.620Z,17.18
2019-06-01T21:02:05.389Z,16.97
2019-06-01T21:05:13.813Z,17.40
2019-06-01T21:08:20.576Z,16.59
2019-06-01T21:11:27.016Z,16.82
2019-06-01T21:14:34.750Z,16.84
2019-06-01T21:17:41.279Z,17.27
2019-06-01T21:20:47.994Z,17.23
2019-06-01T21:23:56.006Z,17.14
2019-06-01T21:27:02.500Z,17.16
2019-06-01T21:30:09.976Z,16.82
2019-06-01T21:33:21.365Z,16.89
2019-06-01T21:36:27.486Z,16.99
2019-06-01T21:39:34.993Z,17.27
2019-06-01T21:42:41.461Z,16.99
2019-06-01T21:45:48.030Z,17.49
2019-06-01T21:48:57.372Z,17.31
2019-06-01T21:52:04.034Z,17.58
2019-06-01T21:55:11.520Z,17.60
2019-06-01T21:58:18.835Z,16.89
2019-06-01T22:01:26.878Z,16.81
2019-06-01T22:04:33.548Z,16.90
2019-06-01T22:07:39.930Z,16.79
2019-06-01T22:10:47.983Z,16.96
2019-06-01T22:13:54.548Z,16.77
2019-06-01T22:17:01.061Z,16.41
2019-06-01T22:20:07.871Z,16.93
2019-06-01T22:23:14.437Z,16.56
2019-06-01T22:26:22.005Z,16.57
2019-06-01T22:29:29.945Z,16.49
2019-06-01T22:32:36.373Z,16.51
2019-06-01T22:35:43.116Z,16.60
2019-06-01T22:38:49.613Z,16.57
2019-06-01T22:42:00.105Z,16.92
2019-06-01T22:45:07.835Z,16.21
2019-06-01T22:48:14.353Z,16.06
2019-06-01T22:51:20.874Z,16.11
2019-06-01T22:54:27.491Z,16.15
2019-06-01T22:57:33.888Z,16.28
2019-06-01T23:00:40.539Z,15.93
2019-06-01T23:03:46.955Z,16.26
2019-06-01T23:06:54.886Z,16.14
2019-06-01T23:10:01.521Z,16.02
2019-06-01T23:13:08.021Z,15.82
2019-06-01T23:16:14.893Z,15.98
2019-06-01T23:19:21.654Z,16.37
2019-06-01T23:22:30.134Z,16.31
2019-06-01T23:25:36.589Z,16.46
2019-06-01T23:28:43.069Z,16.12
2019-06-01T23:31:49.562Z,15.93
2019-06-01T23:34:58.996Z,16.21
2019-06-01T23:38:05.627Z,16.36
2019-06-01T23:41:12.637Z,16.47
2019-06-01T23:44:20.938Z,16.27
2019-06-01T23:47:29.237Z,16.24
2019-06-01T23:50:35.950Z,16.27
2019-06-01T23:53:42.792Z,16.46
2019-06-01T23:56:49.232Z,16.43
2019-06-01T23:59:56.918Z,16.24
